Time,TemperatureF,DewpointF,PressureIn,WindDirection,WindDirectionDegrees,WindSpeedMPH,WindSpeedGustMPH,Humidity,HourlyPrecipIn,Conditions,Clouds,dailyrainin,SoftwareType,DateUTC
2013-03-01 00:03:00,24.0,15.0,30.27,NE,37,6.0,9.0,68,0.00,,,0.00,Meteo,2013-03-01 06:03:00,
2013-03-01 00:08:00,24.0,15.0,30.27,NE,51,3.0,5.0,67,0.00,,,0.00,Meteo,2013-03-01 06:08:00,
2013-03-01 00:13:00,24.0,15.0,30.27,NE,55,6.0,11.0,68,0.00,,,0.00,Meteo,2013-03-01 06:13:00,
2013-03-01 00:18:00,24.0,15.0,30.27,ENE,69,5.0,8.0,67,0.00,,,0.00,Meteo,2013-03-01 06:18:00,
2013-03-01 00:23:00,24.0,15.0,30.27,NE,44,7.0,10.0,68,0.00,,,0.00,Meteo,2013-03-01 06:23:00,
2013-03-01 00:28:00,23.0,14.0,30.27,NE,51,4.0,7.0,68,0.00,,,0.00,Meteo,2013-03-01 06:28:00,
2013-03-01 00:33:00,23.0,14.0,30.27,NE,54,4.0,8.0,69,0.00,,,0.00,Meteo,2013-03-01 06:33:00,
2013-03-01 00:38:00,23.0,14.0,30.27,ENE,58,3.0,5.0,69,0.00,,,0.00,Meteo,2013-03-01 06:38:00,
2013-03-01 00:43:00,23.0,14.0,30.27,NE,37,5.0,7.0,69,0.00,,,0.00,Meteo,2013-03-01 06:43:00,
2013-03-01 00:45:00,23.0,14.0,30.27,NE,40,5.0,7.0,69,0.00,,,0.00,Meteo,2013-03-01 06:45:00,
2013-03-01 00:50:00,23.0,14.0,30.27,NE,47,4.0,5.0,69,0.00,,,0.00,Meteo,2013-03-01 06:50:00,
2013-03-01 00:55:00,23.0,14.0,30.27,NE,54,4.0,7.0,69,0.00,,,0.00,Meteo,2013-03-01 06:55:00,
2013-03-01 01:00:00,23.0,14.0,30.27,ENE,60,6.0,9.0,69,0.00,,,0.00,Meteo,2013-03-01 07:00:00,
2013-03-01 01:05:00,23.0,14.0,30.27,NE,52,7.0,12.0,69,0.00,,,0.00,Meteo,2013-03-01 07:05:00,
2013-03-01 01:10:00,23.0,14.0,30.27,NNE,33,6.0,10.0,69,0.00,,,0.00,Meteo,2013-03-01 07:10:00,
2013-03-01 01:15:00,23.0,15.0,30.27,NE,36,5.0,8.0,70,0.00,,,0.00,Meteo,2013-03-01 07:15:00,
2013-03-01 01:20:00,23.0,15.0,30.27,ENE,60,3.0,4.0,70,0.00,,,0.00,Meteo,2013-03-01 07:20:00,
2013-03-01 01:25:00,23.0,15.0,30.27,NE,50,2.0,5.0,70,0.00,,,0.00,Meteo,2013-03-01 07:25:00,
2013-03-01 01:30:00,23.0,15.0,30.27,NE,43,5.0,7.0,70,0.00,,,0.00,Meteo,2013-03-01 07:30:00,
2013-03-01 01:35:00,23.0,14.0,30.27,ENE,57,7.0,9.0,69,0.00,,,0.00,Meteo,2013-03-01 07:35:00,
2013-03-01 01:40:00,23.0,14.0,30.27,ENE,60,7.0,10.0,69,0.00,,,0.00,Meteo,2013-03-01 07:40:00,
2013-03-01 01:45:00,23.0,14.0,30.27,ENE,59,6.0,9.0,69,0.00,,,0.00,Meteo,2013-03-01 07:45:00,
2013-03-01 01:50:00,23.0,15.0,30.27,ENE,62,6.0,10.0,70,0.00,,,0.00,Meteo,2013-03-01 07:50:00,
2013-03-01 01:55:00,23.0,15.0,30.27,NE,35,7.0,11.0,70,0.00,,,0.00,Meteo,2013-03-01 07:55:00,
2013-03-01 02:00:00,23.0,15.0,30.27,ENE,70,8.0,11.0,70,0.00,,,0.00,Meteo,2013-03-01 08:00:00,
2013-03-01 02:05:00,23.0,15.0,30.27,ENE,57,7.0,13.0,70,0.00,,,0.00,Meteo,2013-03-01 08:05:00,
2013-03-01 02:10:00,23.0,14.0,30.27,NNE,29,7.0,8.0,69,0.00,,,0.00,Meteo,2013-03-01 08:10:00,
2013-03-01 02:15:00,23.0,15.0,30.28,ENE,69,5.0,7.0,70,0.00,,,0.00,Meteo,2013-03-01 08:15:00,
2013-03-01 02:20:00,23.0,15.0,30.27,NE,53,6.0,10.0,70,0.00,,,0.00,Meteo,2013-03-01 08:20:00,
2013-03-01 02:25:00,23.0,15.0,30.27,NE,52,4.0,7.0,71,0.00,,,0.00,Meteo,2013-03-01 08:25:00,
2013-03-01 02:30:00,23.0,15.0,30.27,NNE,27,6.0,9.0,71,0.00,,,0.00,Meteo,2013-03-01 08:30:00,
2013-03-01 02:36:00,23.0,15.0,30.28,NE,43,5.0,9.0,72,0.00,,,0.00,Meteo,2013-03-01 08:36:00,
2013-03-01 02:41:00,23.0,15.0,30.27,NE,53,3.0,6.0,72,0.00,,,0.00,Meteo,2013-03-01 08:41:00,
2013-03-01 02:46:00,23.0,15.0,30.27,ENE,65,5.0,11.0,72,0.00,,,0.00,Meteo,2013-03-01 08:46:00,
2013-03-01 02:51:00,23.0,15.0,30.28,NE,51,3.0,6.0,72,0.00,,,0.00,Meteo,2013-03-01 08:51:00,
2013-03-01 02:56:00,23.0,16.0,30.28,NE,39,6.0,8.0,73,0.00,,,0.00,Meteo,2013-03-01 08:56:00,
2013-03-01 03:01:00,23.0,16.0,30.28,ENE,66,7.0,13.0,73,0.00,,,0.00,Meteo,2013-03-01 09:01:00,
2013-03-01 03:06:00,23.0,16.0,30.27,NNE,27,4.0,6.0,73,0.00,,,0.00,Meteo,2013-03-01 09:06:00,
2013-03-01 03:11:00,23.0,16.0,30.28,NE,41,3.0,6.0,73,0.00,,,0.00,Meteo,2013-03-01 09:11:00,
2013-03-01 03:16:00,23.0,16.0,30.28,NE,45,7.0,10.0,73,0.00,,,0.00,Meteo,2013-03-01 09:16:00,
2013-03-01 03:21:00,23.0,16.0,30.28,NE,36,6.0,7.0,74,0.00,,,0.00,Meteo,2013-03-01 09:21:00,
2013-03-01 03:26:00,23.0,16.0,30.28,NNE,20,6.0,8.0,74,0.00,,,0.00,Meteo,2013-03-01 09:26:00,
2013-03-01 03:31:00,23.0,16.0,30.28,NE,36,6.0,10.0,74,0.00,,,0.00,Meteo,2013-03-01 09:31:00,
2013-03-01 03:36:00,23.0,16.0,30.28,NE,53,4.0,8.0,74,0.00,,,0.00,Meteo,2013-03-01 09:36:00,
2013-03-01 03:41:00,23.0,16.0,30.28,NE,36,4.0,7.0,74,0.00,,,0.00,Meteo,2013-03-01 09:41:00,
2013-03-01 03:46:00,23.0,16.0,30.28,NE,45,6.0,11.0,74,0.00,,,0.00,Meteo,2013-03-01 09:46:00,
2013-03-01 03:51:00,23.0,16.0,30.28,ENE,60,3.0,10.0,73,0.00,,,0.00,Meteo,2013-03-01 09:51:00,
2013-03-01 03:56:00,23.0,15.0,30.28,NNE,31,4.0,7.0,72,0.00,,,0.00,Meteo,2013-03-01 09:56:00,
2013-03-01 04:01:00,23.0,15.0,30.28,NE,40,6.0,8.0,71,0.00,,,0.00,Meteo,2013-03-01 10:01:00,
2013-03-01 04:06:00,23.0,15.0,30.28,NE,48,7.0,12.0,70,0.00,,,0.00,Meteo,2013-03-01 10:06:00,
2013-03-01 04:11:00,23.0,15.0,30.29,ENE,62,6.0,10.0,71,0.00,,,0.00,Meteo,2013-03-01 10:11:00,
2013-03-01 04:16:00,23.0,15.0,30.28,NE,42,4.0,6.0,71,0.00,,,0.00,Meteo,2013-03-01 10:16:00,
2013-03-01 04:21:00,23.0,15.0,30.29,NE,36,6.0,9.0,72,0.00,,,0.00,Meteo,2013-03-01 10:21:00,
2013-03-01 04:26:00,23.0,15.0,30.29,ENE,60,7.0,11.0,72,0.00,,,0.00,Meteo,2013-03-01 10:26:00,
2013-03-01 04:31:00,23.0,15.0,30.29,NE,50,5.0,9.0,72,0.00,,,0.00,Meteo,2013-03-01 10:31:00,
2013-03-01 04:36:00,23.0,15.0,30.29,ENE,77,5.0,8.0,70,0.00,,,0.00,Meteo,2013-03-01 10:36:00,
2013-03-01 04:41:00,23.0,15.0,30.29,ENE,58,6.0,8.0,70,0.00,,,0.00,Meteo,2013-03-01 10:41:00,
2013-03-01 04:47:00,23.0,14.0,30.29,ENE,65,6.0,9.0,69,0.00,,,0.00,Meteo,2013-03-01 10:47:00,
2013-03-01 04:52:00,23.0,14.0,30.30,NE,37,2.0,6.0,69,0.00,,,0.00,Meteo,2013-03-01 10:52:00,
2013-03-01 04:58:00,23.0,14.0,30.30,ENE,57,8.0,13.0,68,0.00,,,0.00,Meteo,2013-03-01 10:58:00,
2013-03-01 05:03:00,23.0,14.0,30.30,NE,47,6.0,9.0,68,0.00,,,0.00,Meteo,2013-03-01 11:03:00,
2013-03-01 05:08:00,23.0,14.0,30.30,NE,45,5.0,10.0,68,0.00,,,0.00,Meteo,2013-03-01 11:08:00,
2013-03-01 05:13:00,23.0,14.0,30.30,NE,53,6.0,8.0,68,0.00,,,0.00,Meteo,2013-03-01 11:13:00,
2013-03-01 05:18:00,23.0,14.0,30.30,NE,44,4.0,6.0,69,0.00,,,0.00,Meteo,2013-03-01 11:18:00,
2013-03-01 05:23:00,23.0,14.0,30.30,NE,45,6.0,9.0,69,0.00,,,0.00,Meteo,2013-03-01 11:23:00,
2013-03-01 05:28:00,22.0,14.0,30.30,NE,51,8.0,11.0,70,0.00,,,0.00,Meteo,2013-03-01 11:28:00,
2013-03-01 05:33:00,22.0,14.0,30.31,NE,35,4.0,7.0,70,0.00,,,0.00,Meteo,2013-03-01 11:33:00,
2013-03-01 05:38:00,22.0,14.0,30.31,NE,50,6.0,9.0,71,0.00,,,0.00,Meteo,2013-03-01 11:38:00,
2013-03-01 05:43:00,22.0,14.0,30.31,NNE,32,5.0,10.0,72,0.00,,,0.00,Meteo,2013-03-01 11:43:00,
2013-03-01 05:48:00,22.0,14.0,30.31,NE,41,4.0,6.0,70,0.00,,,0.00,Meteo,2013-03-01 11:48:00,
2013-03-01 05:53:00,22.0,14.0,30.31,NE,56,5.0,9.0,70,0.00,,,0.00,Meteo,2013-03-01 11:53:00,
2013-03-01 05:58:00,22.0,14.0,30.31,NNE,33,5.0,6.0,70,0.00,,,0.00,Meteo,2013-03-01 11:58:00,
2013-03-01 06:03:00,22.0,13.0,30.31,NE,48,7.0,11.0,69,0.00,,,0.00,Meteo,2013-03-01 12:03:00,
2013-03-01 06:08:00,22.0,14.0,30.31,NE,39,4.0,6.0,70,0.00,,,0.00,Meteo,2013-03-01 12:08:00,
2013-03-01 06:13:00,22.0,14.0,30.31,NE,42,3.0,7.0,71,0.00,,,0.00,Meteo,2013-03-01 12:13:00,
2013-03-01 06:18:00,22.0,14.0,30.31,NE,56,6.0,7.0,72,0.00,,,0.00,Meteo,2013-03-01 12:18:00,
2013-03-01 06:23:00,22.0,14.0,30.31,NE,49,6.0,9.0,72,0.00,,,0.00,Meteo,2013-03-01 12:23:00,
2013-03-01 06:28:00,22.0,15.0,30.32,NNE,32,5.0,9.0,73,0.00,,,0.00,Meteo,2013-03-01 12:28:00,
2013-03-01 06:33:00,22.0,14.0,30.32,NE,48,6.0,8.0,72,0.00,,,0.00,Meteo,2013-03-01 12:33:00,
2013-03-01 06:38:00,22.0,14.0,30.32,NE,41,6.0,11.0,72,0.00,,,0.00,Meteo,2013-03-01 12:38:00,
2013-03-01 06:43:00,22.0,14.0,30.32,NE,45,4.0,5.0,72,0.00,,,0.00,Meteo,2013-03-01 12:43:00,
2013-03-01 06:48:00,22.0,14.0,30.32,ENE,69,6.0,9.0,71,0.00,,,0.00,Meteo,2013-03-01 12:48:00,
2013-03-01 06:53:00,22.0,14.0,30.32,NE,34,4.0,6.0,71,0.00,,,0.00,Meteo,2013-03-01 12:53:00,
2013-03-01 06:58:00,22.0,14.0,30.32,NE,50,8.0,11.0,71,0.00,,,0.00,Meteo,2013-03-01 12:58:00,
2013-03-01 07:03:00,22.0,14.0,30.32,NNE,27,5.0,7.0,71,0.00,,,0.00,Meteo,2013-03-01 13:03:00,
2013-03-01 07:08:00,22.0,14.0,30.33,NE,39,6.0,9.0,71,0.00,,,0.00,Meteo,2013-03-01 13:08:00,
2013-03-01 07:13:00,22.0,13.0,30.33,NE,50,6.0,10.0,69,0.00,,,0.00,Meteo,2013-03-01 13:13:00,
2013-03-01 07:19:00,22.0,13.0,30.33,NE,41,6.0,10.0,69,0.00,,,0.00,Meteo,2013-03-01 13:19:00,
2013-03-01 07:24:00,22.0,13.0,30.33,ENE,58,5.0,7.0,69,0.00,,,0.00,Meteo,2013-03-01 13:24:00,
2013-03-01 07:29:00,22.0,14.0,30.33,NE,36,5.0,8.0,70,0.00,,,0.00,Meteo,2013-03-01 13:29:00,
2013-03-01 07:34:00,22.0,13.0,30.34,ENE,65,6.0,9.0,69,0.00,,,0.00,Meteo,2013-03-01 13:34:00,
2013-03-01 07:39:00,22.0,13.0,30.34,NE,50,8.0,11.0,69,0.00,,,0.00,Meteo,2013-03-01 13:39:00,
2013-03-01 07:44:00,22.0,13.0,30.34,ENE,59,4.0,8.0,69,0.00,,,0.00,Meteo,2013-03-01 13:44:00,
2013-03-01 07:49:00,22.0,13.0,30.34,ENE,64,5.0,7.0,68,0.00,,,0.00,Meteo,2013-03-01 13:49:00,
2013-03-01 07:54:00,22.0,13.0,30.34,NE,55,6.0,8.0,67,0.00,,,0.00,Meteo,2013-03-01 13:54:00,
2013-03-01 07:59:00,22.0,13.0,30.34,NE,55,6.0,13.0,67,0.00,,,0.00,Meteo,2013-03-01 13:59:00,
2013-03-01 08:05:00,22.0,12.0,30.35,NE,52,6.0,11.0,66,0.00,,,0.00,Meteo,2013-03-01 14:05:00,
2013-03-01 08:10:00,22.0,13.0,30.35,NE,42,7.0,12.0,67,0.00,,,0.00,Meteo,2013-03-01 14:10:00,
2013-03-01 08:15:00,22.0,12.0,30.35,NE,56,3.0,5.0,66,0.00,,,0.00,Meteo,2013-03-01 14:15:00,
2013-03-01 08:20:00,22.0,12.0,30.35,NE,43,4.0,7.0,66,0.00,,,0.00,Meteo,2013-03-01 14:20:00,
2013-03-01 08:25:00,22.0,13.0,30.35,NE,35,5.0,8.0,68,0.00,,,0.00,Meteo,2013-03-01 14:25:00,
2013-03-01 08:30:00,22.0,15.0,30.35,NNE,21,6.0,9.0,75,0.00,,,0.00,Meteo,2013-03-01 14:30:00,
2013-03-01 08:35:00,22.0,15.0,30.35,NE,40,6.0,8.0,75,0.00,,,0.00,Meteo,2013-03-01 14:35:00,
2013-03-01 08:40:00,22.0,15.0,30.35,NNE,31,6.0,10.0,74,0.00,,,0.00,Meteo,2013-03-01 14:40:00,
2013-03-01 08:45:00,22.0,15.0,30.35,NE,41,4.0,7.0,74,0.00,,,0.00,Meteo,2013-03-01 14:45:00,
2013-03-01 08:51:00,22.0,15.0,30.36,NNE,26,5.0,8.0,75,0.00,,,0.00,Meteo,2013-03-01 14:51:00,
2013-03-01 08:56:00,21.0,15.0,30.36,NE,35,3.0,5.0,76,0.00,,,0.00,Meteo,2013-03-01 14:56:00,
2013-03-01 09:01:00,21.0,15.0,30.36,NE,34,5.0,7.0,76,0.00,,,0.00,Meteo,2013-03-01 15:01:00,
2013-03-01 09:06:00,21.0,14.0,30.36,NE,39,8.0,11.0,75,0.00,,,0.00,Meteo,2013-03-01 15:06:00,
2013-03-01 09:11:00,21.0,14.0,30.36,NNE,32,6.0,9.0,75,0.00,,,0.00,Meteo,2013-03-01 15:11:00,
2013-03-01 09:16:00,21.0,15.0,30.37,NE,43,5.0,8.0,76,0.00,,,0.00,Meteo,2013-03-01 15:16:00,
2013-03-01 09:21:00,21.0,15.0,30.37,NNE,19,5.0,7.0,76,0.00,,,0.00,Meteo,2013-03-01 15:21:00,
2013-03-01 09:26:00,21.0,15.0,30.37,NNE,21,4.0,5.0,77,0.00,,,0.00,Meteo,2013-03-01 15:26:00,
2013-03-01 09:31:00,21.0,15.0,30.37,NNE,31,5.0,8.0,76,0.00,,,0.00,Meteo,2013-03-01 15:31:00,
2013-03-01 09:37:00,21.0,15.0,30.37,NNE,14,5.0,8.0,76,0.00,,,0.00,Meteo,2013-03-01 15:37:00,
2013-03-01 09:42:00,21.0,15.0,30.37,NNE,13,6.0,9.0,77,0.00,,,0.00,Meteo,2013-03-01 15:42:00,
2013-03-01 09:47:00,21.0,15.0,30.37,North,8,4.0,7.0,77,0.00,,,0.00,Meteo,2013-03-01 15:47:00,
2013-03-01 09:52:00,21.0,15.0,30.37,NE,38,6.0,8.0,78,0.00,,,0.00,Meteo,2013-03-01 15:52:00,
2013-03-01 09:58:00,21.0,15.0,30.37,NNE,22,4.0,6.0,78,0.00,,,0.00,Meteo,2013-03-01 15:58:00,
2013-03-01 10:03:00,21.0,15.0,30.37,NNE,12,3.0,6.0,76,0.00,,,0.00,Meteo,2013-03-01 16:03:00,
2013-03-01 10:08:00,21.0,15.0,30.38,NNE,24,7.0,9.0,77,0.00,,,0.00,Meteo,2013-03-01 16:08:00,
2013-03-01 10:13:00,21.0,15.0,30.38,NNE,32,4.0,6.0,78,0.00,,,0.00,Meteo,2013-03-01 16:13:00,
2013-03-01 10:18:00,21.0,16.0,30.38,NNE,23,4.0,6.0,79,0.00,,,0.00,Meteo,2013-03-01 16:18:00,
2013-03-01 10:23:00,21.0,16.0,30.38,NNE,18,4.0,5.0,79,0.00,,,0.00,Meteo,2013-03-01 16:23:00,
2013-03-01 10:28:00,21.0,15.0,30.38,NE,36,5.0,7.0,78,0.00,,,0.00,Meteo,2013-03-01 16:28:00,
2013-03-01 10:33:00,21.0,15.0,30.38,NNE,26,3.0,6.0,78,0.00,,,0.00,Meteo,2013-03-01 16:33:00,
2013-03-01 10:38:00,21.0,15.0,30.38,North,11,5.0,7.0,78,0.00,,,0.00,Meteo,2013-03-01 16:38:00,
2013-03-01 10:43:00,21.0,15.0,30.38,NNE,21,5.0,9.0,78,0.00,,,0.00,Meteo,2013-03-01 16:43:00,
2013-03-01 10:48:00,21.0,15.0,30.38,NNE,21,3.0,6.0,78,0.00,,,0.00,Meteo,2013-03-01 16:48:00,
2013-03-01 10:53:00,22.0,16.0,30.38,NNE,27,5.0,7.0,77,0.00,,,0.00,Meteo,2013-03-01 16:53:00,
2013-03-01 10:58:00,21.0,15.0,30.38,NNE,16,5.0,6.0,77,0.00,,,0.00,Meteo,2013-03-01 16:58:00,
2013-03-01 11:03:00,22.0,16.0,30.38,NNE,26,5.0,6.0,79,0.00,,,0.00,Meteo,2013-03-01 17:03:00,
2013-03-01 11:08:00,22.0,16.0,30.38,NNE,25,6.0,9.0,79,0.00,,,0.00,Meteo,2013-03-01 17:08:00,
2013-03-01 11:13:00,21.0,16.0,30.38,North,360,4.0,6.0,79,0.00,,,0.00,Meteo,2013-03-01 17:13:00,
2013-03-01 11:18:00,21.0,16.0,30.38,North,2,5.0,8.0,80,0.00,,,0.00,Meteo,2013-03-01 17:18:00,
2013-03-01 11:23:00,20.0,15.0,30.38,NNE,15,5.0,7.0,80,0.00,,,0.00,Meteo,2013-03-01 17:23:00,
2013-03-01 11:28:00,20.0,15.0,30.38,NNE,14,5.0,8.0,80,0.00,,,0.00,Meteo,2013-03-01 17:28:00,
2013-03-01 11:33:00,21.0,16.0,30.38,North,4,5.0,10.0,81,0.00,,,0.00,Meteo,2013-03-01 17:33:00,
2013-03-01 11:38:00,21.0,16.0,30.38,North,355,8.0,14.0,79,0.00,,,0.00,Meteo,2013-03-01 17:38:00,
2013-03-01 11:43:00,21.0,16.0,30.38,NNE,17,4.0,6.0,80,0.00,,,0.00,Meteo,2013-03-01 17:43:00,
2013-03-01 11:48:00,21.0,16.0,30.38,North,356,6.0,9.0,80,0.00,,,0.00,Meteo,2013-03-01 17:48:00,
2013-03-01 11:53:00,21.0,16.0,30.38,NE,35,7.0,10.0,79,0.00,,,0.00,Meteo,2013-03-01 17:53:00,
2013-03-01 11:58:00,22.0,15.0,30.38,NNE,12,6.0,8.0,75,0.00,,,0.00,Meteo,2013-03-01 17:58:00,
2013-03-01 12:03:00,23.0,16.0,30.38,NE,45,4.0,7.0,73,0.00,,,0.00,Meteo,2013-03-01 18:03:00,
2013-03-01 12:08:00,23.0,14.0,30.38,NE,55,6.0,9.0,69,0.00,,,0.00,Meteo,2013-03-01 18:08:00,
2013-03-01 12:13:00,23.0,14.0,30.37,NE,48,8.0,12.0,68,0.00,,,0.00,Meteo,2013-03-01 18:13:00,
2013-03-01 12:18:00,23.0,15.0,30.38,NNE,21,7.0,10.0,70,0.00,,,0.00,Meteo,2013-03-01 18:18:00,
2013-03-01 12:23:00,23.0,16.0,30.38,NNE,30,7.0,9.0,74,0.00,,,0.00,Meteo,2013-03-01 18:23:00,
2013-03-01 12:28:00,23.0,16.0,30.38,NE,41,5.0,10.0,75,0.00,,,0.00,Meteo,2013-03-01 18:28:00,
2013-03-01 12:33:00,22.0,16.0,30.37,NNE,17,5.0,7.0,76,0.00,,,0.00,Meteo,2013-03-01 18:33:00,
2013-03-01 12:38:00,22.0,16.0,30.37,NNE,25,7.0,11.0,77,0.00,,,0.00,Meteo,2013-03-01 18:38:00,
2013-03-01 12:43:00,23.0,17.0,30.37,NE,55,5.0,8.0,78,0.00,,,0.00,Meteo,2013-03-01 18:43:00,
2013-03-01 12:48:00,23.0,17.0,30.37,NNE,18,7.0,11.0,76,0.00,,,0.00,Meteo,2013-03-01 18:48:00,
2013-03-01 12:53:00,22.0,16.0,30.37,NE,38,6.0,9.0,77,0.00,,,0.00,Meteo,2013-03-01 18:53:00,
2013-03-01 12:58:00,22.0,15.0,30.37,NE,37,4.0,7.0,75,0.00,,,0.00,Meteo,2013-03-01 18:58:00,
2013-03-01 13:03:00,23.0,16.0,30.37,NE,35,5.0,6.0,74,0.00,,,0.00,Meteo,2013-03-01 19:03:00,
2013-03-01 13:08:00,23.0,16.0,30.37,NE,40,5.0,7.0,74,0.00,,,0.00,Meteo,2013-03-01 19:08:00,
2013-03-01 13:13:00,23.0,16.0,30.37,North,4,6.0,8.0,75,0.00,,,0.00,Meteo,2013-03-01 19:13:00,
2013-03-01 13:18:00,23.0,17.0,30.37,NNE,27,4.0,6.0,77,0.00,,,0.00,Meteo,2013-03-01 19:18:00,
2013-03-01 13:23:00,23.0,17.0,30.37,NNE,26,6.0,9.0,76,0.00,,,0.00,Meteo,2013-03-01 19:23:00,
2013-03-01 13:28:00,23.0,17.0,30.37,NE,39,4.0,7.0,76,0.00,,,0.00,Meteo,2013-03-01 19:28:00,
2013-03-01 13:33:00,23.0,16.0,30.36,NE,48,7.0,12.0,75,0.00,,,0.00,Meteo,2013-03-01 19:33:00,
2013-03-01 13:38:00,22.0,16.0,30.36,NE,47,6.0,11.0,76,0.00,,,0.00,Meteo,2013-03-01 19:38:00,
2013-03-01 13:43:00,23.0,16.0,30.36,NNE,26,5.0,6.0,75,0.00,,,0.00,Meteo,2013-03-01 19:43:00,
2013-03-01 13:49:00,23.0,17.0,30.36,North,355,6.0,8.0,77,0.00,,,0.00,Meteo,2013-03-01 19:49:00,
2013-03-01 13:54:00,22.0,16.0,30.36,NNE,13,5.0,8.0,78,0.00,,,0.00,Meteo,2013-03-01 19:54:00,
2013-03-01 13:59:00,22.0,16.0,30.36,North,8,6.0,8.0,79,0.00,,,0.00,Meteo,2013-03-01 19:59:00,
2013-03-01 14:04:00,21.0,16.0,30.36,North,2,6.0,10.0,81,0.00,,,0.00,Meteo,2013-03-01 20:04:00,
2013-03-01 14:09:00,21.0,16.0,30.36,North,6,5.0,8.0,81,0.00,,,0.00,Meteo,2013-03-01 20:09:00,
2013-03-01 14:14:00,21.0,16.0,30.36,North,349,7.0,12.0,81,0.00,,,0.00,Meteo,2013-03-01 20:14:00,
2013-03-01 14:19:00,21.0,16.0,30.36,NNE,20,7.0,9.0,81,0.00,,,0.00,Meteo,2013-03-01 20:19:00,
2013-03-01 14:24:00,21.0,17.0,30.36,North,1,6.0,9.0,83,0.00,,,0.00,Meteo,2013-03-01 20:24:00,
2013-03-01 14:29:00,21.0,17.0,30.36,North,358,6.0,9.0,83,0.00,,,0.00,Meteo,2013-03-01 20:29:00,
2013-03-01 14:34:00,21.0,17.0,30.36,North,3,5.0,12.0,83,0.00,,,0.00,Meteo,2013-03-01 20:34:00,
2013-03-01 14:39:00,20.0,16.0,30.36,North,6,4.0,7.0,83,0.00,,,0.00,Meteo,2013-03-01 20:39:00,
2013-03-01 14:44:00,21.0,17.0,30.36,NNE,14,5.0,12.0,84,0.00,,,0.00,Meteo,2013-03-01 20:44:00,
2013-03-01 14:50:00,21.0,17.0,30.36,North,359,6.0,10.0,83,0.00,,,0.00,Meteo,2013-03-01 20:50:00,
2013-03-01 14:55:00,20.0,16.0,30.36,North,0,7.0,13.0,83,0.00,,,0.00,Meteo,2013-03-01 20:55:00,
2013-03-01 15:00:00,21.0,17.0,30.36,NNE,12,5.0,8.0,84,0.00,,,0.00,Meteo,2013-03-01 21:00:00,
2013-03-01 15:05:00,20.0,16.0,30.36,NNE,12,6.0,9.0,84,0.00,,,0.00,Meteo,2013-03-01 21:05:00,
2013-03-01 15:10:00,20.0,16.0,30.36,NNE,14,6.0,8.0,84,0.00,,,0.00,Meteo,2013-03-01 21:10:00,
2013-03-01 15:15:00,20.0,16.0,30.36,NNE,14,5.0,7.0,85,0.00,,,0.00,Meteo,2013-03-01 21:15:00,
2013-03-01 15:20:00,20.0,16.0,30.36,North,358,5.0,6.0,84,0.00,,,0.00,Meteo,2013-03-01 21:20:00,
2013-03-01 15:25:00,21.0,17.0,30.36,North,359,5.0,8.0,85,0.00,,,0.00,Meteo,2013-03-01 21:25:00,
2013-03-01 15:30:00,21.0,17.0,30.36,North,11,5.0,8.0,84,0.00,,,0.00,Meteo,2013-03-01 21:30:00,
2013-03-01 15:35:00,21.0,17.0,30.36,North,11,5.0,7.0,84,0.00,,,0.00,Meteo,2013-03-01 21:35:00,
2013-03-01 15:40:00,21.0,17.0,30.36,North,1,6.0,8.0,84,0.00,,,0.00,Meteo,2013-03-01 21:40:00,
2013-03-01 15:45:00,20.0,16.0,30.37,North,6,6.0,9.0,83,0.00,,,0.00,Meteo,2013-03-01 21:45:00,
2013-03-01 15:50:00,20.0,16.0,30.37,North,4,5.0,7.0,83,0.00,,,0.00,Meteo,2013-03-01 21:50:00,
2013-03-01 15:55:00,20.0,16.0,30.37,North,354,8.0,12.0,83,0.00,,,0.00,Meteo,2013-03-01 21:55:00,
2013-03-01 16:01:00,20.0,15.0,30.37,North,353,7.0,11.0,82,0.00,,,0.00,Meteo,2013-03-01 22:01:00,
2013-03-01 16:06:00,20.0,15.0,30.37,North,359,5.0,9.0,82,0.00,,,0.00,Meteo,2013-03-01 22:06:00,
2013-03-01 16:11:00,20.0,16.0,30.37,NNE,16,5.0,7.0,83,0.00,,,0.00,Meteo,2013-03-01 22:11:00,
2013-03-01 16:16:00,20.0,15.0,30.37,NNE,13,5.0,7.0,81,0.00,,,0.00,Meteo,2013-03-01 22:16:00,
2013-03-01 16:21:00,20.0,15.0,30.37,North,1,6.0,10.0,81,0.00,,,0.00,Meteo,2013-03-01 22:21:00,
2013-03-01 16:26:00,20.0,15.0,30.37,North,350,6.0,9.0,80,0.00,,,0.00,Meteo,2013-03-01 22:26:00,
2013-03-01 16:31:00,20.0,15.0,30.38,North,3,5.0,7.0,80,0.00,,,0.00,Meteo,2013-03-01 22:31:00,
2013-03-01 16:36:00,20.0,15.0,30.38,North,6,5.0,7.0,79,0.00,,,0.00,Meteo,2013-03-01 22:36:00,
2013-03-01 16:41:00,20.0,15.0,30.38,NNE,12,4.0,6.0,79,0.00,,,0.00,Meteo,2013-03-01 22:41:00,
2013-03-01 16:46:00,20.0,14.0,30.38,North,3,3.0,5.0,78,0.00,,,0.00,Meteo,2013-03-01 22:46:00,
2013-03-01 16:51:00,20.0,14.0,30.38,NNE,12,4.0,6.0,77,0.00,,,0.00,Meteo,2013-03-01 22:51:00,
2013-03-01 16:56:00,20.0,14.0,30.38,NNE,20,4.0,6.0,77,0.00,,,0.00,Meteo,2013-03-01 22:56:00,
2013-03-01 17:02:00,20.0,13.0,30.38,North,4,7.0,11.0,75,0.00,,,0.00,Meteo,2013-03-01 23:02:00,
2013-03-01 17:07:00,20.0,13.0,30.38,NNE,17,4.0,6.0,74,0.00,,,0.00,Meteo,2013-03-01 23:07:00,
2013-03-01 17:12:00,20.0,13.0,30.38,North,359,4.0,7.0,74,0.00,,,0.00,Meteo,2013-03-01 23:12:00,
2013-03-01 17:17:00,20.0,13.0,30.38,North,360,6.0,10.0,73,0.00,,,0.00,Meteo,2013-03-01 23:17:00,
2013-03-01 17:22:00,20.0,13.0,30.38,North,360,5.0,6.0,73,0.00,,,0.00,Meteo,2013-03-01 23:22:00,
2013-03-01 17:27:00,20.0,13.0,30.38,North,359,6.0,8.0,74,0.00,,,0.00,Meteo,2013-03-01 23:27:00,
2013-03-01 17:32:00,20.0,13.0,30.38,North,5,3.0,4.0,74,0.00,,,0.00,Meteo,2013-03-01 23:32:00,
2013-03-01 17:37:00,20.0,13.0,30.37,North,5,4.0,7.0,73,0.00,,,0.00,Meteo,2013-03-01 23:37:00,
2013-03-01 17:42:00,19.0,12.0,30.37,NNE,12,4.0,6.0,73,0.00,,,0.00,Meteo,2013-03-01 23:42:00,
2013-03-01 17:47:00,19.0,12.0,30.37,North,1,2.0,3.0,73,0.00,,,0.00,Meteo,2013-03-01 23:47:00,
2013-03-01 17:52:00,19.0,12.0,30.37,North,2,3.0,7.0,73,0.00,,,0.00,Meteo,2013-03-01 23:52:00,
2013-03-01 17:57:00,19.0,11.0,30.37,North,11,4.0,5.0,72,0.00,,,0.00,Meteo,2013-03-01 23:57:00,
2013-03-01 18:02:00,19.0,11.0,30.37,NNE,27,2.0,3.0,72,0.00,,,0.00,Meteo,2013-03-02 00:02:00,
2013-03-01 18:07:00,19.0,11.0,30.37,NNE,16,3.0,5.0,72,0.00,,,0.00,Meteo,2013-03-02 00:07:00,
2013-03-01 18:12:00,19.0,12.0,30.37,NNE,19,3.0,5.0,73,0.00,,,0.00,Meteo,2013-03-02 00:12:00,
2013-03-01 18:17:00,19.0,12.0,30.37,NE,36,1.0,2.0,73,0.00,,,0.00,Meteo,2013-03-02 00:17:00,
2013-03-01 18:22:00,19.0,12.0,30.37,NNE,14,1.0,2.0,73,0.00,,,0.00,Meteo,2013-03-02 00:22:00,
2013-03-01 18:27:00,19.0,11.0,30.38,North,6,1.0,3.0,72,0.00,,,0.00,Meteo,2013-03-02 00:27:00,
2013-03-01 18:32:00,19.0,12.0,30.38,North,353,1.0,2.0,73,0.00,,,0.00,Meteo,2013-03-02 00:32:00,
2013-03-01 18:37:00,19.0,12.0,30.38,NNE,23,1.0,2.0,73,0.00,,,0.00,Meteo,2013-03-02 00:37:00,
2013-03-01 18:42:00,19.0,12.0,30.38,North,3,2.0,2.0,73,0.00,,,0.00,Meteo,2013-03-02 00:42:00,
2013-03-01 18:47:00,18.0,11.0,30.38,NNE,31,2.0,3.0,73,0.00,,,0.00,Meteo,2013-03-02 00:47:00,
2013-03-01 18:52:00,18.0,11.0,30.38,North,0,0.0,0.0,74,0.00,,,0.00,Meteo,2013-03-02 00:52:00,
2013-03-01 18:57:00,18.0,11.0,30.37,NNE,24,1.0,2.0,73,0.00,,,0.00,Meteo,2013-03-02 00:57:00,
2013-03-01 19:02:00,18.0,11.0,30.37,North,5,0.0,1.0,73,0.00,,,0.00,Meteo,2013-03-02 01:02:00,
2013-03-01 19:07:00,18.0,11.0,30.38,North,358,1.0,3.0,73,0.00,,,0.00,Meteo,2013-03-02 01:07:00,
2013-03-01 19:12:00,18.0,11.0,30.38,North,354,0.0,1.0,73,0.00,,,0.00,Meteo,2013-03-02 01:12:00,
2013-03-01 19:17:00,18.0,11.0,30.38,North,0,0.0,0.0,73,0.00,,,0.00,Meteo,2013-03-02 01:17:00,
2013-03-01 19:22:00,18.0,11.0,30.37,North,354,1.0,2.0,73,0.00,,,0.00,Meteo,2013-03-02 01:22:00,
2013-03-01 19:27:00,18.0,11.0,30.37,North,354,1.0,2.0,73,0.00,,,0.00,Meteo,2013-03-02 01:27:00,
2013-03-01 19:32:00,17.0,9.9,30.38,North,354,1.0,2.0,73,0.00,,,0.00,Meteo,2013-03-02 01:32:00,
2013-03-01 19:37:00,17.0,9.9,30.38,North,354,1.0,2.0,73,0.00,,,0.00,Meteo,2013-03-02 01:37:00,
2013-03-01 19:42:00,17.0,9.9,30.37,North,354,0.0,2.0,73,0.00,,,0.00,Meteo,2013-03-02 01:42:00,
2013-03-01 19:47:00,17.0,9.9,30.38,North,354,1.0,2.0,73,0.00,,,0.00,Meteo,2013-03-02 01:47:00,
2013-03-01 19:52:00,17.0,9.9,30.38,North,352,0.0,1.0,73,0.00,,,0.00,Meteo,2013-03-02 01:52:00,
2013-03-01 19:57:00,16.0,8.9,30.38,North,0,0.0,0.0,73,0.00,,,0.00,Meteo,2013-03-02 01:57:00,
2013-03-01 20:02:00,16.0,9.2,30.38,North,352,0.0,2.0,74,0.00,,,0.00,Meteo,2013-03-02 02:02:00,
2013-03-01 20:07:00,16.0,9.2,30.38,North,0,0.0,0.0,74,0.00,,,0.00,Meteo,2013-03-02 02:07:00,
2013-03-01 20:12:00,16.0,9.2,30.38,North,0,0.0,0.0,74,0.00,,,0.00,Meteo,2013-03-02 02:12:00,
2013-03-01 20:18:00,16.0,9.2,30.37,North,0,0.0,0.0,74,0.00,,,0.00,Meteo,2013-03-02 02:18:00,
2013-03-01 20:23:00,15.0,8.5,30.37,North,0,0.0,0.0,75,0.00,,,0.00,Meteo,2013-03-02 02:23:00,
2013-03-01 20:28:00,15.0,8.2,30.37,North,0,0.0,0.0,74,0.00,,,0.00,Meteo,2013-03-02 02:28:00,
2013-03-01 20:33:00,15.0,8.5,30.37,North,0,0.0,0.0,75,0.00,,,0.00,Meteo,2013-03-02 02:33:00,
2013-03-01 20:38:00,15.0,8.5,30.37,North,0,0.0,0.0,75,0.00,,,0.00,Meteo,2013-03-02 02:38:00,
2013-03-01 20:43:00,15.0,8.8,30.37,North,0,0.0,0.0,76,0.00,,,0.00,Meteo,2013-03-02 02:43:00,
2013-03-01 20:48:00,14.0,7.8,30.37,North,0,0.0,0.0,76,0.00,,,0.00,Meteo,2013-03-02 02:48:00,
2013-03-01 20:53:00,14.0,7.8,30.36,North,0,0.0,0.0,76,0.00,,,0.00,Meteo,2013-03-02 02:53:00,
2013-03-01 20:59:00,14.0,8.1,30.37,North,0,0.0,0.0,77,0.00,,,0.00,Meteo,2013-03-02 02:59:00,
2013-03-01 21:04:00,14.0,8.4,30.37,North,352,0.0,1.0,78,0.00,,,0.00,Meteo,2013-03-02 03:04:00,
2013-03-01 21:09:00,14.0,8.4,30.37,North,352,1.0,2.0,78,0.00,,,0.00,Meteo,2013-03-02 03:09:00,
2013-03-01 21:14:00,14.0,8.4,30.37,North,0,0.0,0.0,78,0.00,,,0.00,Meteo,2013-03-02 03:14:00,
2013-03-01 21:19:00,14.0,8.4,30.37,North,0,0.0,0.0,78,0.00,,,0.00,Meteo,2013-03-02 03:19:00,
2013-03-01 21:24:00,14.0,8.4,30.36,North,0,0.0,0.0,78,0.00,,,0.00,Meteo,2013-03-02 03:24:00,
2013-03-01 21:29:00,14.0,8.4,30.36,North,0,0.0,0.0,78,0.00,,,0.00,Meteo,2013-03-02 03:29:00,
2013-03-01 21:34:00,13.0,7.2,30.36,North,0,0.0,0.0,77,0.00,,,0.00,Meteo,2013-03-02 03:34:00,
2013-03-01 21:39:00,13.0,7.2,30.36,North,0,0.0,0.0,77,0.00,,,0.00,Meteo,2013-03-02 03:39:00,
2013-03-01 21:44:00,13.0,7.2,30.36,North,0,0.0,0.0,77,0.00,,,0.00,Meteo,2013-03-02 03:44:00,
2013-03-01 21:49:00,13.0,7.2,30.36,North,0,0.0,0.0,77,0.00,,,0.00,Meteo,2013-03-02 03:49:00,
2013-03-01 21:54:00,12.0,6.5,30.36,North,0,0.0,0.0,78,0.00,,,0.00,Meteo,2013-03-02 03:54:00,
2013-03-01 21:59:00,12.0,6.5,30.36,North,0,0.0,0.0,78,0.00,,,0.00,Meteo,2013-03-02 03:59:00,
2013-03-01 22:04:00,12.0,6.5,30.36,North,0,0.0,0.0,78,0.00,,,0.00,Meteo,2013-03-02 04:04:00,
2013-03-01 22:09:00,11.0,5.5,30.36,North,0,0.0,0.0,78,0.00,,,0.00,Meteo,2013-03-02 04:09:00,
2013-03-01 22:14:00,11.0,5.8,30.35,North,0,0.0,0.0,79,0.00,,,0.00,Meteo,2013-03-02 04:14:00,
2013-03-01 22:19:00,11.0,5.8,30.35,North,0,0.0,0.0,79,0.00,,,0.00,Meteo,2013-03-02 04:19:00,
2013-03-01 22:24:00,11.0,5.8,30.35,North,0,0.0,0.0,79,0.00,,,0.00,Meteo,2013-03-02 04:24:00,
2013-03-01 22:29:00,11.0,5.8,30.35,North,0,0.0,0.0,79,0.00,,,0.00,Meteo,2013-03-02 04:29:00,
2013-03-01 22:34:00,10.0,5.1,30.35,North,0,0.0,0.0,80,0.00,,,0.00,Meteo,2013-03-02 04:34:00,
2013-03-01 22:39:00,10.0,5.1,30.35,North,0,0.0,0.0,80,0.00,,,0.00,Meteo,2013-03-02 04:39:00,
2013-03-01 22:44:00,10.0,5.1,30.35,North,0,0.0,0.0,80,0.00,,,0.00,Meteo,2013-03-02 04:44:00,
2013-03-01 22:49:00,10.0,5.1,30.35,North,0,0.0,0.0,80,0.00,,,0.00,Meteo,2013-03-02 04:49:00,
2013-03-01 22:54:00,10.0,5.1,30.35,North,0,0.0,0.0,80,0.00,,,0.00,Meteo,2013-03-02 04:54:00,
2013-03-01 22:59:00,9.0,4.1,30.35,North,0,0.0,0.0,80,0.00,,,0.00,Meteo,2013-03-02 04:59:00,
2013-03-01 23:00:00,9.0,4.1,30.35,North,0,0.0,0.0,80,0.00,,,0.00,Meteo,2013-03-02 05:00:00,
2013-03-01 23:01:00,9.0,4.1,30.35,North,0,0.0,0.0,80,0.00,,,0.00,Meteo,2013-03-02 05:01:00,
2013-03-01 23:04:00,9.0,4.1,30.35,North,0,0.0,0.0,80,0.00,,,0.00,Meteo,2013-03-02 05:04:00,
2013-03-01 23:06:00,9.0,4.1,30.35,North,0,0.0,0.0,80,0.00,,,0.00,Meteo,2013-03-02 05:06:00,
2013-03-01 23:11:00,9.0,3.8,30.34,North,0,0.0,0.0,79,0.00,,,0.00,Meteo,2013-03-02 05:11:00,
2013-03-01 23:16:00,8.0,2.9,30.34,North,0,0.0,0.0,79,0.00,,,0.00,Meteo,2013-03-02 05:16:00,
2013-03-01 23:21:00,8.0,2.9,30.34,North,0,0.0,0.0,79,0.00,,,0.00,Meteo,2013-03-02 05:21:00,
2013-03-01 23:26:00,8.0,2.9,30.34,North,0,0.0,0.0,79,0.00,,,0.00,Meteo,2013-03-02 05:26:00,
2013-03-01 23:31:00,8.0,2.9,30.34,North,0,0.0,0.0,79,0.00,,,0.00,Meteo,2013-03-02 05:31:00,
2013-03-01 23:36:00,7.0,1.9,30.33,North,0,0.0,0.0,79,0.00,,,0.00,Meteo,2013-03-02 05:36:00,
2013-03-01 23:41:00,7.0,1.9,30.33,North,0,0.0,0.0,79,0.00,,,0.00,Meteo,2013-03-02 05:41:00,
2013-03-01 23:46:00,7.0,1.9,30.33,North,0,0.0,0.0,79,0.00,,,0.00,Meteo,2013-03-02 05:46:00,
2013-03-01 23:51:00,7.0,1.9,30.33,North,0,0.0,0.0,79,0.00,,,0.00,Meteo,2013-03-02 05:51:00,
2013-03-01 23:56:00,7.0,1.9,30.33,North,0,0.0,0.0,79,0.00,,,0.00,Meteo,2013-03-02 05:56:00,